WetterOnline ( https://www.wetteronline.de )

Wetter aktuell Seubersdorf

Aktuelles Wetter: Gelbelsee (539m)

6-stündlich | Neueste Meldungen
Ortszeit Temperatur Wetter
Do, 18.08. 2:00 20.8° C Sprühregen
Mi, 17.08. 20:00 27.0° C wolkig
Mi, 17.08. 14:00 29.2° C leicht bewölkt
Mi, 17.08. 8:00 20.3° C wolkig
Mi, 17.08. 2:00 18.9° C leicht bewölkt
Di, 16.08. 20:00 25.6° C wolkenlos
Di, 16.08. 14:00 24.0° C wolkig
Di, 16.08. 8:00 16.5° C wolkenlos
Ortszeit Temperatur Wetter
Do, 18.08. 4:00 17.3° C leichter Regen
Do, 18.08. 3:50 17.3° C leichter Regen
Do, 18.08. 3:40 17.4° C leichter Regen
Do, 18.08. 3:30 17.4° C leichter Regen
Do, 18.08. 3:20 17.4° C leichter Regen
Do, 18.08. 3:10 17.4° C leichter Regen
Do, 18.08. 3:00 17.9° C leichter Regen
Do, 18.08. 2:30 18.2° C leichter Regen
Do, 18.08. 2:00 20.8° C Sprühregen
Do, 18.08. 1:30 21.9° C leichter Regen
Do, 18.08. 1:00 22.8° C wolkig
Ortszeit Relative Feuchte Sichtweite
Do, 18.08. 2:00 63% 45 km
Mi, 17.08. 20:00 36% 55 km
Mi, 17.08. 14:00 29% 45 km
Mi, 17.08. 8:00 58% 60 km
Mi, 17.08. 2:00 58% 60 km
Di, 16.08. 20:00 37% 50 km
Di, 16.08. 14:00 43% 65 km
Di, 16.08. 8:00 77% 55 km
Ortszeit Relative Feuchte Sichtweite
Do, 18.08. 4:00 91% 18 km
Do, 18.08. 3:50 91% -
Do, 18.08. 3:40 90% -
Do, 18.08. 3:30 90% 24 km
Do, 18.08. 3:20 90% -
Do, 18.08. 3:10 90% -
Do, 18.08. 3:00 85% 30 km
Do, 18.08. 2:30 83% 23 km
Do, 18.08. 2:00 63% 45 km
Do, 18.08. 1:30 54% 40 km
Do, 18.08. 1:00 49% 50 km
Ortszeit Niederschlagsmenge Niederschlagsart
Do, 18.08. 2:00 0.1 l/m2 in 6 Std. Regen
Mi, 17.08. 20:00 0.0 l/m2 in 12 Std. -
Mi, 17.08. 14:00 0.0 l/m2 in 6 Std. -
Mi, 17.08. 8:00 0.0 l/m2 in 12 Std. -
Mi, 17.08. 2:00 0.0 l/m2 in 6 Std. -
Di, 16.08. 20:00 0.0 l/m2 in 12 Std. -
Di, 16.08. 14:00 0.0 l/m2 in 6 Std. -
Di, 16.08. 8:00 0.2 l/m2 in 12 Std. -
Ortszeit Niederschlagsmenge Niederschlagsart
Do, 18.08. 4:00 0.6 l/m2 in 1 Std. Regen
Do, 18.08. 3:50 keine Meldung -
Do, 18.08. 3:40 keine Meldung -
Do, 18.08. 3:30 0.3 l/m2 in 1 Std. -
Do, 18.08. 3:20 keine Meldung -
Do, 18.08. 3:10 keine Meldung -
Do, 18.08. 3:00 0.2 l/m2 in 1 Std. Regen
Do, 18.08. 2:30 0.1 l/m2 in 1 Std. -
Do, 18.08. 2:00 0.1 l/m2 in 1 Std. Regen
Do, 18.08. 1:30 0.1 l/m2 in 1 Std. -
Do, 18.08. 1:00 0.0 l/m2 in 1 Std. -
Ortszeit Stärke Spitze Richtung
km/h Bft. km/h Grad Sektor
Do, 18.08. 2:00 20 4 33 240° SW
Mi, 17.08. 20:00 9 2 20 320° NW
Mi, 17.08. 14:00 11 2 25 110° O
Mi, 17.08. 8:00 6 1 11 90° O
Mi, 17.08. 2:00 0 0 11 - -
Di, 16.08. 20:00 6 1 28 270° W
Di, 16.08. 14:00 14 3 32 240° SW
Di, 16.08. 8:00 7 2 18 200° S
Ortszeit Stärke Spitze Richtung
km/h Bft. km/h Grad Sektor
Do, 18.08. 4:00 13 3 31 280° W
Do, 18.08. 3:50 13 3 - 280° W
Do, 18.08. 3:40 11 2 - 290° W
Do, 18.08. 3:30 14 3 32 270° W
Do, 18.08. 3:20 14 3 - 270° W
Do, 18.08. 3:10 18 3 - 270° W
Do, 18.08. 3:00 17 3 37 270° W
Do, 18.08. 2:30 22 4 36 260° W
Do, 18.08. 2:00 20 4 33 240° SW
Do, 18.08. 1:30 19 3 30 250° W
Do, 18.08. 1:00 17 3 22 310° NW
Ortszeit Untergrenze Bedeckung Gattung
total tief tief mittel hoch
Do, 18.08. 2:00 2400 m 8/8 6/8 - - -
Mi, 17.08. 20:00 2700 m 8/8 1/8 - - -
Mi, 17.08. 14:00 4200 m 5/8 2/8 - - -
Mi, 17.08. 8:00 6600 m 6/8 2/8 - - -
Mi, 17.08. 2:00 10500 m 5/8 0/8 - - -
Di, 16.08. 20:00 - 0/8 0/8 - - -
Di, 16.08. 14:00 1800 m 5/8 5/8 - - -
Di, 16.08. 8:00 - 0/8 0/8 - - -
Ortszeit Bedeckungsgrad in Achtel und Wolkenuntergrenze
Do, 18.08. 4:00 7(3000m)
Do, 18.08. 3:50 7(3000m)
Do, 18.08. 3:40 7
Do, 18.08. 3:30 1(2100m) 8(3000m)
Do, 18.08. 3:20 1(2100m) 8(3000m)
Do, 18.08. 3:10 8
Do, 18.08. 3:00 1(2100m) 8(3000m)
Do, 18.08. 2:30 4(2100m) 8(3000m)
Do, 18.08. 2:00 6(2400m) 8(3000m)
Do, 18.08. 1:30 7(2700m) 7(3300m)
Do, 18.08. 1:00 1(2700m) 8(3300m) 8(4200m)
Ortszeit Luftdruck NN (hPa) Tendenz (hPa in 3 Std.)
Do, 18.08. 2:00 1012 + 1,9
Mi, 17.08. 20:00 1009 - 0,1
Mi, 17.08. 14:00 1009 - 0,3
Mi, 17.08. 8:00 1011 + 0,4
Mi, 17.08. 2:00 1011 - 0,1
Di, 16.08. 20:00 1009 + 0,1
Di, 16.08. 14:00 1010 - 0,3
Di, 16.08. 8:00 1011 + 0,5
Ortszeit Luftdruck NN (hPa) Tendenz (hPa in 3 Std.)
Do, 18.08. 4:00 1012 + 1,3
Do, 18.08. 3:50 1012 keine Meldung
Do, 18.08. 3:40 1012 keine Meldung
Do, 18.08. 3:30 1012 + 1,9
Do, 18.08. 3:20 1012 keine Meldung
Do, 18.08. 3:10 1012 keine Meldung
Do, 18.08. 3:00 1012 + 2,0
Do, 18.08. 2:30 1013 + 2,5
Do, 18.08. 2:00 1012 + 1,9
Do, 18.08. 1:30 1011 + 0,9
Do, 18.08. 1:00 1010 + 0,4
Ortszeit Schneehöhe (cm)
Do, 18.08. 2:00 0
Mi, 17.08. 20:00 0
Mi, 17.08. 14:00 0
Mi, 17.08. 8:00 0
Mi, 17.08. 2:00 0
Di, 16.08. 20:00 0
Di, 16.08. 14:00 0
Di, 16.08. 8:00 0
Ortszeit Schneehöhe (cm)
Do, 18.08. 4:00 0
Do, 18.08. 3:50 0
Do, 18.08. 3:40 0
Do, 18.08. 3:30 0
Do, 18.08. 3:20 0
Do, 18.08. 3:10 0
Do, 18.08. 3:00 0
Do, 18.08. 2:30 0
Do, 18.08. 2:00 0
Do, 18.08. 1:30 0
Do, 18.08. 1:00 0
Link zu dieser Seite / Seite empfehlen

Das Wetter in ...